sensor_id;sensor_type;location;lat;lon;timestamp;pressure;altitude;pressure_sealevel;temperature;humidity
3968;BME280;9221;42.646;23.380;2023-02-13T00:01:35;96251.41;;;1.64;85.20
3968;BME280;9221;42.646;23.380;2023-02-13T00:04:01;96227.91;;;1.67;85.19
3968;BME280;9221;42.646;23.380;2023-02-13T00:06:26;96214.44;;;1.56;85.72
3968;BME280;9221;42.646;23.380;2023-02-13T00:08:52;96228.00;;;1.64;85.59
3968;BME280;9221;42.646;23.380;2023-02-13T00:11:17;96234.91;;;1.65;85.39
3968;BME280;9221;42.646;23.380;2023-02-13T00:13:44;96173.16;;;1.23;85.38
3968;BME280;9221;42.646;23.380;2023-02-13T00:16:10;96179.81;;;1.30;85.77
3968;BME280;9221;42.646;23.380;2023-02-13T00:18:38;96194.75;;;1.49;85.78
3968;BME280;9221;42.646;23.380;2023-02-13T00:21:09;96235.56;;;1.71;85.42
3968;BME280;9221;42.646;23.380;2023-02-13T00:23:36;96235.56;;;1.71;84.94
3968;BME280;9221;42.646;23.380;2023-02-13T00:26:06;96198.94;;;1.53;84.59
3968;BME280;9221;42.646;23.380;2023-02-13T00:28:32;96230.38;;;1.71;84.39
3968;BME280;9221;42.646;23.380;2023-02-13T00:31:09;96323.59;;;1.58;84.56
3968;BME280;9221;42.646;23.380;2023-02-13T00:33:34;96247.63;;;1.73;84.58
3968;BME280;9221;42.646;23.380;2023-02-13T00:36:11;96283.31;;;1.69;84.97
3968;BME280;9221;42.646;23.380;2023-02-13T00:38:38;96247.22;;;1.60;85.21
3968;BME280;9221;42.646;23.380;2023-02-13T00:41:04;96279.78;;;1.71;85.04
3968;BME280;9221;42.646;23.380;2023-02-13T00:43:30;96172.81;;;1.32;85.81
3968;BME280;9221;42.646;23.380;2023-02-13T00:45:56;96266.69;;;1.74;85.13
3968;BME280;9221;42.646;23.380;2023-02-13T00:48:23;96240.97;;;1.66;84.89
3968;BME280;9221;42.646;23.380;2023-02-13T00:50:49;96242.81;;;1.62;85.09
3968;BME280;9221;42.646;23.380;2023-02-13T00:53:17;96195.09;;;1.40;85.48
3968;BME280;9221;42.646;23.380;2023-02-13T00:55:43;96164.78;;;1.15;85.53
3968;BME280;9221;42.646;23.380;2023-02-13T00:58:08;96188.50;;;1.29;85.12
3968;BME280;9221;42.646;23.380;2023-02-13T01:00:34;96235.56;;;1.71;85.36
3968;BME280;9221;42.646;23.380;2023-02-13T01:02:59;96196.56;;;1.47;84.52
3968;BME280;9221;42.646;23.380;2023-02-13T01:05:24;96250.75;;;1.83;84.44
3968;BME280;9221;42.646;23.380;2023-02-13T01:07:52;96268.03;;;1.84;85.14
3968;BME280;9221;42.646;23.380;2023-02-13T01:10:17;96255.72;;;1.89;84.41
3968;BME280;9221;42.646;23.380;2023-02-13T01:12:43;96283.97;;;1.75;84.38
3968;BME280;9221;42.646;23.380;2023-02-13T01:15:08;96252.88;;;1.72;84.42
3968;BME280;9221;42.646;23.380;2023-02-13T01:17:34;96208.75;;;1.45;84.90
3968;BME280;9221;42.646;23.380;2023-02-13T01:19:59;96221.38;;;1.56;84.51
3968;BME280;9221;42.646;23.380;2023-02-13T01:22:24;96249.84;;;1.84;84.56
3968;BME280;9221;42.646;23.380;2023-02-13T01:24:50;96256.88;;;1.82;84.32
3968;BME280;9221;42.646;23.380;2023-02-13T01:27:15;96246.63;;;1.77;84.46
3968;BME280;9221;42.646;23.380;2023-02-13T01:29:41;96248.00;;;1.62;83.84
3968;BME280;9221;42.646;23.380;2023-02-13T01:32:06;96251.84;;;1.52;83.88
3968;BME280;9221;42.646;23.380;2023-02-13T01:34:32;96296.50;;;1.63;84.46
3968;BME280;9221;42.646;23.380;2023-02-13T01:36:58;96268.91;;;1.59;83.40
3968;BME280;9221;42.646;23.380;2023-02-13T01:39:23;96288.81;;;1.60;84.05
3968;BME280;9221;42.646;23.380;2023-02-13T01:41:49;96203.47;;;1.23;84.19
3968;BME280;9221;42.646;23.380;2023-02-13T01:44:47;96275.72;;;1.63;84.79
3968;BME280;9221;42.646;23.380;2023-02-13T01:47:16;96261.13;;;1.59;84.33
3968;BME280;9221;42.646;23.380;2023-02-13T01:49:44;96210.47;;;1.46;84.31
3968;BME280;9221;42.646;23.380;2023-02-13T01:52:11;96268.38;;;1.75;83.93
3968;BME280;9221;42.646;23.380;2023-02-13T01:54:38;96267.66;;;1.71;84.30
3968;BME280;9221;42.646;23.380;2023-02-13T01:57:16;96217.38;;;1.47;84.21
3968;BME280;9221;42.646;23.380;2023-02-13T01:59:52;96193.59;;;1.32;84.19
3968;BME280;9221;42.646;23.380;2023-02-13T02:02:20;96252.19;;;1.66;83.94
3968;BME280;9221;42.646;23.380;2023-02-13T02:04:47;96257.97;;;1.75;84.21
3968;BME280;9221;42.646;23.380;2023-02-13T02:07:33;96243.63;;;1.64;84.70
3968;BME280;9221;42.646;23.380;2023-02-13T02:10:02;96273.38;;;1.81;84.60
3968;BME280;9221;42.646;23.380;2023-02-13T02:12:42;96207.13;;;1.42;84.38
3968;BME280;9221;42.646;23.380;2023-02-13T02:15:09;96289.97;;;1.77;84.08
3968;BME280;9221;42.646;23.380;2023-02-13T02:17:35;96296.78;;;1.81;84.32
3968;BME280;9221;42.646;23.380;2023-02-13T02:20:08;96302.75;;;1.83;84.53
3968;BME280;9221;42.646;23.380;2023-02-13T02:34:31;96260.75;;;1.94;84.25
3968;BME280;9221;42.646;23.380;2023-02-13T02:42:28;96207.59;;;1.54;83.50
3968;BME280;9221;42.646;23.380;2023-02-13T02:48:15;96234.50;;;1.76;83.83
3968;BME280;9221;42.646;23.380;2023-02-13T02:51:20;96328.91;;;2.03;83.16
3968;BME280;9221;42.646;23.380;2023-02-13T02:56:38;96283.63;;;2.09;83.42
3968;BME280;9221;42.646;23.380;2023-02-13T02:59:15;96299.28;;;2.08;83.27
3968;BME280;9221;42.646;23.380;2023-02-13T03:02:01;96276.41;;;1.92;83.51
3968;BME280;9221;42.646;23.380;2023-02-13T03:04:49;96251.94;;;1.74;83.86
3968;BME280;9221;42.646;23.380;2023-02-13T03:07:34;96248.19;;;1.81;84.18
3968;BME280;9221;42.646;23.380;2023-02-13T03:10:03;96226.13;;;1.68;84.11
3968;BME280;9221;42.646;23.380;2023-02-13T03:15:36;96288.09;;;2.06;84.33
3968;BME280;9221;42.646;23.380;2023-02-13T03:18:22;96287.06;;;2.10;84.00
3968;BME280;9221;42.646;23.380;2023-02-13T03:21:15;96284.59;;;2.07;84.29
3968;BME280;9221;42.646;23.380;2023-02-13T03:24:07;96271.66;;;2.03;83.45
3968;BME280;9221;42.646;23.380;2023-02-13T03:26:44;96304.16;;;2.17;83.80
3968;BME280;9221;42.646;23.380;2023-02-13T03:29:34;96272.47;;;2.06;84.29
3968;BME280;9221;42.646;23.380;2023-02-13T03:38:02;96238.66;;;1.06;83.89
3968;BME280;9221;42.646;23.380;2023-02-13T03:40:36;96284.09;;;1.72;83.93
3968;BME280;9221;42.646;23.380;2023-02-13T03:43:35;96154.47;;;1.12;83.83
3968;BME280;9221;42.646;23.380;2023-02-13T03:46:03;96309.03;;;2.02;83.71
3968;BME280;9221;42.646;23.380;2023-02-13T03:48:33;96254.22;;;1.83;83.76
3968;BME280;9221;42.646;23.380;2023-02-13T03:51:26;96239.50;;;1.82;83.50
3968;BME280;9221;42.646;23.380;2023-02-13T03:53:56;96259.84;;;1.95;83.50
3968;BME280;9221;42.646;23.380;2023-02-13T03:56:24;96283.38;;;2.15;83.35
3968;BME280;9221;42.646;23.380;2023-02-13T03:59:18;96302.28;;;2.20;83.17
3968;BME280;9221;42.646;23.380;2023-02-13T04:02:07;96291.81;;;2.22;82.85
3968;BME280;9221;42.646;23.380;2023-02-13T04:07:14;96228.34;;;1.79;82.22
3968;BME280;9221;42.646;23.380;2023-02-13T04:09:54;96295.63;;;2.13;83.22
3968;BME280;9221;42.646;23.380;2023-02-13T04:12:26;96314.41;;;2.22;82.97
3968;BME280;9221;42.646;23.380;2023-02-13T04:15:09;96329.50;;;2.35;82.61
3968;BME280;9221;42.646;23.380;2023-02-13T04:17:45;96299.28;;;2.31;82.36
3968;BME280;9221;42.646;23.380;2023-02-13T04:20:12;96306.19;;;2.32;82.15
3968;BME280;9221;42.646;23.380;2023-02-13T04:22:46;96223.84;;;1.84;82.23
3968;BME280;9221;42.646;23.380;2023-02-13T04:25:14;96295.25;;;2.23;82.28
3968;BME280;9221;42.646;23.380;2023-02-13T04:27:40;96281.19;;;2.05;82.31
3968;BME280;9221;42.646;23.380;2023-02-13T04:30:07;96243.75;;;1.85;82.46
3968;BME280;9221;42.646;23.380;2023-02-13T04:32:33;96320.66;;;2.16;82.36
3968;BME280;9221;42.646;23.380;2023-02-13T04:34:59;96337.72;;;2.25;82.57
3968;BME280;9221;42.646;23.380;2023-02-13T04:37:24;96287.00;;;2.11;82.60
3968;BME280;9221;42.646;23.380;2023-02-13T04:39:49;96286.88;;;2.14;82.53
3968;BME280;9221;42.646;23.380;2023-02-13T04:42:15;96300.31;;;2.27;82.68
3968;BME280;9221;42.646;23.380;2023-02-13T04:44:40;96229.59;;;1.92;82.17
3968;BME280;9221;42.646;23.380;2023-02-13T04:47:05;96294.09;;;2.31;82.05
3968;BME280;9221;42.646;23.380;2023-02-13T04:49:31;96273.38;;;1.30;82.13
3968;BME280;9221;42.646;23.380;2023-02-13T04:51:56;96296.50;;;2.36;82.01
3968;BME280;9221;42.646;23.380;2023-02-13T04:54:22;96270.31;;;2.17;81.78
3968;BME280;9221;42.646;23.380;2023-02-13T04:56:47;96258.78;;;2.00;81.21
3968;BME280;9221;42.646;23.380;2023-02-13T04:59:12;96244.84;;;1.54;81.98
3968;BME280;9221;42.646;23.380;2023-02-13T05:01:38;96309.66;;;2.09;82.62
3968;BME280;9221;42.646;23.380;2023-02-13T05:04:03;96258.72;;;1.78;82.33
3968;BME280;9221;42.646;23.380;2023-02-13T05:06:29;96190.75;;;1.40;82.19
3968;BME280;9221;42.646;23.380;2023-02-13T05:08:54;96248.44;;;1.75;81.58
3968;BME280;9221;42.646;23.380;2023-02-13T05:11:19;96259.91;;;1.69;81.58
3968;BME280;9221;42.646;23.380;2023-02-13T05:13:45;96315.13;;;2.01;80.89
3968;BME280;9221;42.646;23.380;2023-02-13T05:16:10;96307.53;;;1.95;80.88
3968;BME280;9221;42.646;23.380;2023-02-13T05:18:35;96262.78;;;1.62;80.57
3968;BME280;9221;42.646;23.380;2023-02-13T05:21:01;96322.47;;;1.90;80.37
3968;BME280;9221;42.646;23.380;2023-02-13T05:23:45;96367.00;;;1.81;80.38
3968;BME280;9221;42.646;23.380;2023-02-13T05:26:10;96304.44;;;1.33;80.83
3968;BME280;9221;42.646;23.380;2023-02-13T05:28:35;96307.13;;;1.57;80.08
3968;BME280;9221;42.646;23.380;2023-02-13T05:31:19;96283.28;;;1.19;80.12
3968;BME280;9221;42.646;23.380;2023-02-13T05:33:45;96331.25;;;1.61;79.49
3968;BME280;9221;42.646;23.380;2023-02-13T05:36:10;96160.72;;;0.01;79.80
3968;BME280;9221;42.646;23.380;2023-02-13T05:38:35;96261.25;;;0.77;79.77
3968;BME280;9221;42.646;23.380;2023-02-13T05:41:01;96208.69;;;0.44;80.56
3968;BME280;9221;42.646;23.380;2023-02-13T05:43:28;96344.72;;;1.20;81.02
3968;BME280;9221;42.646;23.380;2023-02-13T05:46:07;96394.13;;;0.62;81.82
3968;BME280;9221;42.646;23.380;2023-02-13T05:48:33;96332.06;;;1.11;81.75
3968;BME280;9221;42.646;23.380;2023-02-13T05:50:59;96367.44;;;1.15;81.74
3968;BME280;9221;42.646;23.380;2023-02-13T05:53:24;96283.69;;;0.80;81.67
3968;BME280;9221;42.646;23.380;2023-02-13T05:55:50;96344.00;;;1.16;81.27
3968;BME280;9221;42.646;23.380;2023-02-13T05:58:17;96360.81;;;1.05;81.88
3968;BME280;9221;42.646;23.380;2023-02-13T06:00:43;96353.06;;;0.75;82.38
3968;BME280;9221;42.646;23.380;2023-02-13T06:03:09;96294.84;;;0.55;82.16
3968;BME280;9221;42.646;23.380;2023-02-13T06:05:34;96355.50;;;0.81;81.75
3968;BME280;9221;42.646;23.380;2023-02-13T06:07:59;96383.25;;;0.49;82.91
3968;BME280;9221;42.646;23.380;2023-02-13T06:10:25;96368.66;;;0.45;84.17
3968;BME280;9221;42.646;23.380;2023-02-13T06:12:50;96417.44;;;0.63;83.76
3968;BME280;9221;42.646;23.380;2023-02-13T06:15:15;96299.22;;;0.23;83.05
3968;BME280;9221;42.646;23.380;2023-02-13T06:17:41;96260.91;;;0.03;82.95
3968;BME280;9221;42.646;23.380;2023-02-13T06:20:07;96359.75;;;0.83;83.28
3968;BME280;9221;42.646;23.380;2023-02-13T06:22:32;96367.84;;;1.01;82.84
3968;BME280;9221;42.646;23.380;2023-02-13T06:24:58;96407.41;;;1.11;82.32
3968;BME280;9221;42.646;23.380;2023-02-13T06:27:23;96370.63;;;1.23;81.73
3968;BME280;9221;42.646;23.380;2023-02-13T06:29:48;96331.13;;;1.12;81.20
3968;BME280;9221;42.646;23.380;2023-02-13T06:32:14;96365.63;;;1.17;81.59
3968;BME280;9221;42.646;23.380;2023-02-13T06:34:39;96366.66;;;1.11;81.65
3968;BME280;9221;42.646;23.380;2023-02-13T06:37:04;96422.50;;;1.26;81.32
3968;BME280;9221;42.646;23.380;2023-02-13T06:39:30;96176.13;;;0.05;81.92
3968;BME280;9221;42.646;23.380;2023-02-13T06:41:55;96357.72;;;1.20;81.40
3968;BME280;9221;42.646;23.380;2023-02-13T06:44:20;96311.03;;;0.90;82.01
3968;BME280;9221;42.646;23.380;2023-02-13T06:46:46;96312.56;;;0.97;82.05
3968;BME280;9221;42.646;23.380;2023-02-13T06:49:11;96381.13;;;1.47;81.75
3968;BME280;9221;42.646;23.380;2023-02-13T06:51:36;96343.66;;;1.27;81.75
3968;BME280;9221;42.646;23.380;2023-02-13T06:54:02;96374.81;;;1.54;81.45
3968;BME280;9221;42.646;23.380;2023-02-13T06:56:27;96358.13;;;1.34;81.25
3968;BME280;9221;42.646;23.380;2023-02-13T06:58:53;96376.13;;;1.67;81.16
3968;BME280;9221;42.646;23.380;2023-02-13T07:01:18;96358.91;;;1.63;80.58
3968;BME280;9221;42.646;23.380;2023-02-13T07:03:43;96398.63;;;1.68;80.53
3968;BME280;9221;42.646;23.380;2023-02-13T07:06:10;96382.97;;;1.70;80.00
3968;BME280;9221;42.646;23.380;2023-02-13T07:08:35;96377.41;;;1.81;80.17
3968;BME280;9221;42.646;23.380;2023-02-13T07:11:00;96317.31;;;1.63;80.25
3968;BME280;9221;42.646;23.380;2023-02-13T07:13:26;96297.06;;;1.48;79.93
3968;BME280;9221;42.646;23.380;2023-02-13T07:15:51;96368.47;;;1.88;80.23
3968;BME280;9221;42.646;23.380;2023-02-13T07:18:16;96339.94;;;1.86;80.12
3968;BME280;9221;42.646;23.380;2023-02-13T07:20:42;96309.16;;;1.74;79.77
3968;BME280;9221;42.646;23.380;2023-02-13T07:23:07;96378.53;;;2.23;79.52
3968;BME280;9221;42.646;23.380;2023-02-13T07:25:33;96336.84;;;2.00;79.31
3968;BME280;9221;42.646;23.380;2023-02-13T07:28:05;96356.56;;;2.31;78.47
3968;BME280;9221;42.646;23.380;2023-02-13T07:30:31;96413.50;;;2.41;78.04
3968;BME280;9221;42.646;23.380;2023-02-13T07:33:01;96316.75;;;2.04;78.64
3968;BME280;9221;42.646;23.380;2023-02-13T07:35:27;96267.16;;;1.85;78.67
3968;BME280;9221;42.646;23.380;2023-02-13T07:37:54;96365.94;;;2.35;78.61
3968;BME280;9221;42.646;23.380;2023-02-13T07:40:20;96269.13;;;2.02;78.27
3968;BME280;9221;42.646;23.380;2023-02-13T07:42:46;96383.94;;;2.89;77.90
3968;BME280;9221;42.646;23.380;2023-02-13T07:45:11;96369.13;;;2.90;77.77
3968;BME280;9221;42.646;23.380;2023-02-13T07:47:39;96374.25;;;2.93;77.58
3968;BME280;9221;42.646;23.380;2023-02-13T07:50:05;96315.44;;;2.63;77.30
3968;BME280;9221;42.646;23.380;2023-02-13T07:52:31;96356.03;;;2.91;77.36
3968;BME280;9221;42.646;23.380;2023-02-13T07:54:57;96410.75;;;3.15;76.76
3968;BME280;9221;42.646;23.380;2023-02-13T07:57:22;96318.25;;;2.81;76.44
3968;BME280;9221;42.646;23.380;2023-02-13T07:59:48;96312.91;;;2.84;76.40
3968;BME280;9221;42.646;23.380;2023-02-13T08:02:14;96317.97;;;2.87;76.09
3968;BME280;9221;42.646;23.380;2023-02-13T08:04:40;96362.00;;;3.17;76.04
3968;BME280;9221;42.646;23.380;2023-02-13T08:07:10;96324.53;;;2.97;76.33
3968;BME280;9221;42.646;23.380;2023-02-13T08:09:36;96321.25;;;2.92;75.90
3968;BME280;9221;42.646;23.380;2023-02-13T08:12:20;96379.66;;;3.32;75.87
3968;BME280;9221;42.646;23.380;2023-02-13T08:14:45;96405.94;;;3.26;75.95
3968;BME280;9221;42.646;23.380;2023-02-13T08:17:11;96398.81;;;3.31;75.59
3968;BME280;9221;42.646;23.380;2023-02-13T08:19:36;96361.63;;;3.04;75.94
3968;BME280;9221;42.646;23.380;2023-02-13T08:22:01;96370.97;;;3.10;75.89
3968;BME280;9221;42.646;23.380;2023-02-13T08:24:27;96377.69;;;3.15;75.80
3968;BME280;9221;42.646;23.380;2023-02-13T08:26:52;96375.69;;;3.22;76.14
3968;BME280;9221;42.646;23.380;2023-02-13T08:29:18;96372.31;;;3.20;75.94
3968;BME280;9221;42.646;23.380;2023-02-13T08:31:43;96438.88;;;3.29;75.84
3968;BME280;9221;42.646;23.380;2023-02-13T08:34:09;96404.16;;;3.28;76.05
3968;BME280;9221;42.646;23.380;2023-02-13T08:36:34;96390.50;;;3.21;75.60
3968;BME280;9221;42.646;23.380;2023-02-13T08:39:00;96306.06;;;3.03;75.54
3968;BME280;9221;42.646;23.380;2023-02-13T08:41:25;96361.88;;;3.42;75.39
3968;BME280;9221;42.646;23.380;2023-02-13T08:43:53;96400.56;;;3.53;75.39
3968;BME280;9221;42.646;23.380;2023-02-13T08:46:19;96444.22;;;3.48;75.11
3968;BME280;9221;42.646;23.380;2023-02-13T08:48:44;96377.03;;;3.32;75.34
3968;BME280;9221;42.646;23.380;2023-02-13T08:51:11;96252.38;;;2.55;75.20
3968;BME280;9221;42.646;23.380;2023-02-13T08:53:38;96331.25;;;3.25;75.04
3968;BME280;9221;42.646;23.380;2023-02-13T08:56:04;96385.00;;;3.50;74.91
3968;BME280;9221;42.646;23.380;2023-02-13T08:58:29;96379.25;;;3.42;75.40
3968;BME280;9221;42.646;23.380;2023-02-13T09:00:55;96376.41;;;3.48;75.34
3968;BME280;9221;42.646;23.380;2023-02-13T09:03:20;96400.78;;;3.47;74.80
3968;BME280;9221;42.646;23.380;2023-02-13T09:05:46;96392.91;;;3.48;75.07
3968;BME280;9221;42.646;23.380;2023-02-13T09:08:12;96339.59;;;3.33;74.47
3968;BME280;9221;42.646;23.380;2023-02-13T09:10:38;96400.06;;;3.65;74.58
3968;BME280;9221;42.646;23.380;2023-02-13T09:13:04;96354.22;;;3.37;74.63
3968;BME280;9221;42.646;23.380;2023-02-13T09:15:30;96413.63;;;3.73;74.08
3968;BME280;9221;42.646;23.380;2023-02-13T09:17:56;96285.81;;;2.66;73.56
3968;BME280;9221;42.646;23.380;2023-02-13T09:20:22;96311.00;;;3.52;73.47
3968;BME280;9221;42.646;23.380;2023-02-13T09:22:47;96366.22;;;4.05;74.30
3968;BME280;9221;42.646;23.380;2023-02-13T09:25:13;96300.78;;;3.68;73.16
3968;BME280;9221;42.646;23.380;2023-02-13T09:27:38;96367.50;;;4.15;73.10
3968;BME280;9221;42.646;23.380;2023-02-13T09:30:08;96394.19;;;4.22;72.29
3968;BME280;9221;42.646;23.380;2023-02-13T09:32:35;96346.59;;;4.15;71.55
3968;BME280;9221;42.646;23.380;2023-02-13T09:35:02;96335.84;;;4.23;71.54
3968;BME280;9221;42.646;23.380;2023-02-13T09:37:28;96343.78;;;4.40;71.62
3968;BME280;9221;42.646;23.380;2023-02-13T09:39:53;96356.94;;;4.58;70.93
3968;BME280;9221;42.646;23.380;2023-02-13T09:42:25;96423.50;;;4.68;70.45
3968;BME280;9221;42.646;23.380;2023-02-13T09:44:56;96350.75;;;4.78;70.53
3968;BME280;9221;42.646;23.380;2023-02-13T09:47:33;96345.53;;;4.97;70.10
3968;BME280;9221;42.646;23.380;2023-02-13T09:50:03;96298.00;;;4.70;69.34
3968;BME280;9221;42.646;23.380;2023-02-13T09:52:35;96346.81;;;5.07;69.09
3968;BME280;9221;42.646;23.380;2023-02-13T09:55:02;96275.59;;;4.83;69.21
3968;BME280;9221;42.646;23.380;2023-02-13T09:57:42;96223.78;;;4.74;68.54
3968;BME280;9221;42.646;23.380;2023-02-13T10:00:43;96333.66;;;5.63;67.50
3968;BME280;9221;42.646;23.380;2023-02-13T10:03:17;96272.84;;;5.40;66.55
3968;BME280;9221;42.646;23.380;2023-02-13T10:16:41;96261.19;;;5.99;65.17
3968;BME280;9221;42.646;23.380;2023-02-13T10:21:57;96335.06;;;7.81;61.46
3968;BME280;9221;42.646;23.380;2023-02-13T10:24:32;96304.56;;;8.52;58.63
3968;BME280;9221;42.646;23.380;2023-02-13T10:27:01;96286.63;;;9.28;56.52
3968;BME280;9221;42.646;23.380;2023-02-13T10:32:21;96360.09;;;9.73;54.03
3968;BME280;9221;42.646;23.380;2023-02-13T10:34:52;96231.06;;;9.45;54.07
3968;BME280;9221;42.646;23.380;2023-02-13T10:37:20;96263.97;;;9.78;53.40
3968;BME280;9221;42.646;23.380;2023-02-13T10:39:49;96273.06;;;10.26;52.01
3968;BME280;9221;42.646;23.380;2023-02-13T10:48:04;96244.16;;;9.73;51.00
3968;BME280;9221;42.646;23.380;2023-02-13T11:04:19;96246.72;;;8.52;55.32
3968;BME280;9221;42.646;23.380;2023-02-13T11:09:19;96241.19;;;7.85;57.20
3968;BME280;9221;42.646;23.380;2023-02-13T11:11:44;96212.34;;;7.54;57.57
3968;BME280;9221;42.646;23.380;2023-02-13T11:14:16;96231.09;;;7.62;58.33
3968;BME280;9221;42.646;23.380;2023-02-13T11:19:38;96233.00;;;7.30;59.11
3968;BME280;9221;42.646;23.380;2023-02-13T11:22:08;96260.69;;;7.20;59.62
3968;BME280;9221;42.646;23.380;2023-02-13T11:24:35;96215.22;;;7.05;59.72
3968;BME280;9221;42.646;23.380;2023-02-13T11:27:04;96182.09;;;6.88;59.88
3968;BME280;9221;42.646;23.380;2023-02-13T11:29:35;96285.38;;;7.01;59.92
3968;BME280;9221;42.646;23.380;2023-02-13T11:32:18;96176.13;;;7.00;59.74
3968;BME280;9221;42.646;23.380;2023-02-13T11:34:43;96120.50;;;6.65;59.47
3968;BME280;9221;42.646;23.380;2023-02-13T11:39:39;96209.84;;;6.92;59.56
3968;BME280;9221;42.646;23.380;2023-02-13T11:42:14;96150.03;;;6.83;60.03
3968;BME280;9221;42.646;23.380;2023-02-13T11:44:40;96226.78;;;6.70;59.00
3968;BME280;9221;42.646;23.380;2023-02-13T11:47:06;96171.09;;;7.11;59.36
3968;BME280;9221;42.646;23.380;2023-02-13T11:49:36;96184.59;;;7.05;58.38
3968;BME280;9221;42.646;23.380;2023-02-13T11:52:09;96139.25;;;7.03;58.50
3968;BME280;9221;42.646;23.380;2023-02-13T11:54:44;96156.19;;;6.98;58.61
3968;BME280;9221;42.646;23.380;2023-02-13T11:57:31;96093.50;;;6.63;57.93
3968;BME280;9221;42.646;23.380;2023-02-13T11:59:58;96169.63;;;6.91;58.03
3968;BME280;9221;42.646;23.380;2023-02-13T12:02:43;96074.56;;;6.57;58.72
3968;BME280;9221;42.646;23.380;2023-02-13T12:05:20;96119.47;;;6.98;58.59
3968;BME280;9221;42.646;23.380;2023-02-13T12:07:47;96075.06;;;6.64;58.76
3968;BME280;9221;42.646;23.380;2023-02-13T12:15:22;96111.53;;;7.14;57.55
3968;BME280;9221;42.646;23.380;2023-02-13T12:18:01;96152.94;;;7.23;57.11
3968;BME280;9221;42.646;23.380;2023-02-13T12:43:14;96098.44;;;7.57;55.16
3968;BME280;9221;42.646;23.380;2023-02-13T12:46:06;96131.81;;;7.69;55.14
3968;BME280;9221;42.646;23.380;2023-02-13T12:57:18;96078.16;;;7.88;53.73
3968;BME280;9221;42.646;23.380;2023-02-13T13:00:24;96073.72;;;7.88;52.91
3968;BME280;9221;42.646;23.380;2023-02-13T13:05:59;96021.00;;;7.50;52.05
3968;BME280;9221;42.646;23.380;2023-02-13T13:08:41;96133.97;;;7.77;51.23
3968;BME280;9221;42.646;23.380;2023-02-13T13:14:18;96064.94;;;7.75;51.83
3968;BME280;9221;42.646;23.380;2023-02-13T13:25:17;96082.22;;;7.65;52.21
3968;BME280;9221;42.646;23.380;2023-02-13T13:27:48;96085.50;;;7.68;51.59
3968;BME280;9221;42.646;23.380;2023-02-13T13:30:34;95994.59;;;7.38;51.88
3968;BME280;9221;42.646;23.380;2023-02-13T13:33:02;96082.69;;;7.71;52.06
3968;BME280;9221;42.646;23.380;2023-02-13T13:35:29;96045.41;;;7.79;51.89
3968;BME280;9221;42.646;23.380;2023-02-13T13:38:16;96040.09;;;7.81;52.07
3968;BME280;9221;42.646;23.380;2023-02-13T13:52:32;95994.34;;;7.70;51.81
3968;BME280;9221;42.646;23.380;2023-02-13T13:54:59;96067.25;;;7.94;51.85
3968;BME280;9221;42.646;23.380;2023-02-13T14:00:28;95994.19;;;7.59;51.80
3968;BME280;9221;42.646;23.380;2023-02-13T14:05:31;95971.88;;;7.52;51.42
3968;BME280;9221;42.646;23.380;2023-02-13T14:08:02;96038.66;;;7.89;51.76
3968;BME280;9221;42.646;23.380;2023-02-13T14:13:29;96031.31;;;7.94;51.89
3968;BME280;9221;42.646;23.380;2023-02-13T14:15:55;96065.56;;;7.93;51.72
3968;BME280;9221;42.646;23.380;2023-02-13T14:18:23;95963.06;;;7.53;51.86
3968;BME280;9221;42.646;23.380;2023-02-13T14:20:52;96030.88;;;7.88;52.36
3968;BME280;9221;42.646;23.380;2023-02-13T14:36:37;96002.22;;;7.70;52.49
3968;BME280;9221;42.646;23.380;2023-02-13T14:46:49;96008.22;;;7.72;53.11
3968;BME280;9221;42.646;23.380;2023-02-13T14:49:22;96021.16;;;7.75;52.88
3968;BME280;9221;42.646;23.380;2023-02-13T14:51:52;96033.53;;;7.73;52.84
3968;BME280;9221;42.646;23.380;2023-02-13T14:57:33;96005.31;;;7.62;53.85
3968;BME280;9221;42.646;23.380;2023-02-13T15:00:23;95995.47;;;7.66;53.37
3968;BME280;9221;42.646;23.380;2023-02-13T15:02:57;96067.69;;;7.59;53.56
3968;BME280;9221;42.646;23.380;2023-02-13T15:05:32;95944.47;;;7.14;53.38
3968;BME280;9221;42.646;23.380;2023-02-13T15:08:13;96038.25;;;7.54;54.06
3968;BME280;9221;42.646;23.380;2023-02-13T15:10:53;95989.03;;;7.43;53.71
3968;BME280;9221;42.646;23.380;2023-02-13T15:13:23;96071.25;;;7.43;53.69
3968;BME280;9221;42.646;23.380;2023-02-13T15:15:59;96004.31;;;7.36;54.00
3968;BME280;9221;42.646;23.380;2023-02-13T15:18:48;96002.09;;;7.30;54.39
3968;BME280;9221;42.646;23.380;2023-02-13T15:21:23;95923.97;;;6.77;54.42
3968;BME280;9221;42.646;23.380;2023-02-13T15:23:52;95975.22;;;6.98;55.15
3968;BME280;9221;42.646;23.380;2023-02-13T15:26:22;96009.97;;;7.01;55.14
3968;BME280;9221;42.646;23.380;2023-02-13T15:28:59;96039.38;;;7.06;55.13
3968;BME280;9221;42.646;23.380;2023-02-13T15:31:29;96009.59;;;7.07;55.30
3968;BME280;9221;42.646;23.380;2023-02-13T15:33:55;96006.59;;;6.99;55.13
3968;BME280;9221;42.646;23.380;2023-02-13T15:36:25;96016.34;;;6.97;54.82
3968;BME280;9221;42.646;23.380;2023-02-13T15:39:05;95946.63;;;6.50;55.02
3968;BME280;9221;42.646;23.380;2023-02-13T15:41:35;96006.75;;;6.82;55.38
3968;BME280;9221;42.646;23.380;2023-02-13T15:44:02;95967.78;;;6.47;55.30
3968;BME280;9221;42.646;23.380;2023-02-13T15:46:30;96043.06;;;6.73;55.45
3968;BME280;9221;42.646;23.380;2023-02-13T15:49:21;96015.00;;;6.75;55.47
3968;BME280;9221;42.646;23.380;2023-02-13T15:51:44;96023.50;;;6.79;55.82
3968;BME280;9221;42.646;23.380;2023-02-13T15:54:24;96065.44;;;6.65;56.44
3968;BME280;9221;42.646;23.380;2023-02-13T15:56:52;96063.06;;;6.60;56.25
3968;BME280;9221;42.646;23.380;2023-02-13T15:59:19;96025.06;;;6.53;56.78
3968;BME280;9221;42.646;23.380;2023-02-13T16:01:45;95978.66;;;6.24;56.56
3968;BME280;9221;42.646;23.380;2023-02-13T16:04:13;95967.97;;;6.13;57.14
3968;BME280;9221;42.646;23.380;2023-02-13T16:06:41;95966.38;;;6.10;57.29
3968;BME280;9221;42.646;23.380;2023-02-13T16:09:33;96063.28;;;6.41;57.32
3968;BME280;9221;42.646;23.380;2023-02-13T16:12:26;96027.91;;;6.34;57.91
3968;BME280;9221;42.646;23.380;2023-02-13T16:15:01;96031.72;;;6.28;57.28
3968;BME280;9221;42.646;23.380;2023-02-13T16:17:30;96036.16;;;6.12;57.84
3968;BME280;9221;42.646;23.380;2023-02-13T16:20:00;95969.94;;;5.78;58.33
3968;BME280;9221;42.646;23.380;2023-02-13T16:27:48;96048.66;;;6.06;58.51
3968;BME280;9221;42.646;23.380;2023-02-13T16:30:31;96029.56;;;5.72;58.44
3968;BME280;9221;42.646;23.380;2023-02-13T16:35:38;95989.88;;;5.64;58.77
3968;BME280;9221;42.646;23.380;2023-02-13T16:38:04;96053.03;;;5.90;58.88
3968;BME280;9221;42.646;23.380;2023-02-13T16:40:45;95914.97;;;4.99;59.53